Meath Environmental Platform

Observations for Trim Market St

Time AQI Temp °C Hum % Pres Pa CO μg/m³ H₂S μg/m³ NO μg/m³ NO₂ μg/m³ O₃ μg/m³ SO₂ μg/m³ PM1 μg/m³ PM2.5 μg/m³ PM10 μg/m³
Wednesday 15 July 2026
16:05 1 37.1 30 66,700 0 0 0 0.58 29.26 1.45 6.41 12.01 16.18
16:00 1 37.1 30 66,712 0 0 0 0 29.56 1.5 5.7 10.38 13.58
15:59 1 37.2 30 66,690 0 0 0 0 32.29 1.27 6.41 9.84 11.85
15:53 1 37 30 66,645 0 0 0 0.61 27.74 0.74 8.55 12.01 15.32
15:48 1 37.1 30 66,627 0 0 0 0 10.97 0.57 6.41 10.37 14.44
15:45 1 37 30 66,602 0 0 0 0 27.77 0.72 7.13 11.42 14.42
15:44 1 37 31 66,602 0 0 0 9.91 28.38 0 7.84 11.96 15.27
15:43 1 36.9 31 66,602 0 0 0 1.84 23.41 0.65 4.99 9.79 13.55
15:42 1 36.9 31 66,598 0 0 0 4.94 27.3 0.63 6.41 10.87 14.41
15:41 1 36.8 30 66,596 0 0 0 9.78 18 0.08 5.7 10.34 12.69
15:40 1 36.8 30 66,598 0 0 0 0 24 0.71 6.41 10.88 13.55
15:39 1 36.8 31 66,602 0 0 0 0 19.92 0.6 6.41 10.33 16.13
15:38 1 36.8 31 66,602 0 0 0 6.15 36.14 0.61 5.7 9.24 11.82
15:37 1 36.8 31 66,596 0 0 0 0.87 29.21 0.96 7.13 11.42 14.41
15:36 1 36.7 30 66,600 0 0 0 2.21 36.02 0.87 6.41 9.8 11.83
15:35 1 36.7 30 66,576 0 0 0 0.91 25.02 0.39 5.7 10.34 12.69
15:34 1 36.7 31 66,572 0 0 0 2.2 23.06 0.26 4.99 9.79 12.69
15:33 1 36.6 31 66,566 0 0 0 0 25.48 0.98 5.7 9.77 11.82
15:32 1 36.6 31 66,588 0 0 0 2.08 35.31 0.75 7.13 11.39 15.25
15:29 1 36.4 31 66,558 0 0 0 0 23.53 0.75 7.13 14.08 19.52